createdAt,value
2022-11-29T00:00:04.680Z,97278.75
2022-11-29T00:02:40.300Z,97277.84
2022-11-29T00:05:07.965Z,97266.72
2022-11-29T00:07:37.569Z,97286.28
2022-11-29T00:10:07.597Z,97276.22
2022-11-29T00:12:34.699Z,97280.19
2022-11-29T00:15:04.521Z,97254.88
2022-11-29T00:17:34.878Z,97281.81
2022-11-29T00:20:05.646Z,97281.94
2022-11-29T00:22:34.236Z,97259.22
2022-11-29T00:25:03.952Z,97278.75
2022-11-29T00:27:31.074Z,97274.47
2022-11-29T00:30:00.741Z,97254.25
2022-11-29T00:32:37.862Z,97260.09
2022-11-29T00:35:09.677Z,97250.97
2022-11-29T00:37:37.696Z,97212.91
2022-11-29T00:40:06.352Z,97264.34
2022-11-29T00:42:33.579Z,97269.34
2022-11-29T00:45:00.868Z,97258.25
2022-11-29T00:47:30.410Z,97265.88
2022-11-29T00:49:58.350Z,97260.69
2022-11-29T00:52:27.988Z,97255.00
2022-11-29T00:54:58.274Z,97254.16
2022-11-29T00:57:26.528Z,97250.56
2022-11-29T00:59:54.452Z,97252.25
2022-11-29T01:02:23.612Z,97257.31
2022-11-29T01:04:53.553Z,97240.19
2022-11-29T01:07:20.614Z,97246.91
2022-11-29T01:09:51.357Z,97251.31
2022-11-29T01:12:21.583Z,97241.91
2022-11-29T01:14:49.790Z,97237.47
2022-11-29T01:17:22.823Z,97213.94
2022-11-29T01:19:51.150Z,97237.59
2022-11-29T01:22:23.078Z,97241.22
2022-11-29T01:24:51.608Z,97213.28
2022-11-29T01:27:19.409Z,97207.94
2022-11-29T01:29:54.025Z,97234.34
2022-11-29T01:32:22.028Z,97227.59
2022-11-29T01:34:49.318Z,97243.53
2022-11-29T01:37:19.435Z,97240.84
2022-11-29T01:39:46.607Z,97238.41
2022-11-29T01:42:14.761Z,97223.88
2022-11-29T01:44:46.053Z,97246.72
2022-11-29T01:47:13.511Z,97246.56
2022-11-29T01:49:47.677Z,97247.34
2022-11-29T01:52:20.388Z,97242.34
2022-11-29T01:54:54.067Z,97245.03
2022-11-29T01:57:22.720Z,97218.28
2022-11-29T01:59:55.486Z,97236.91
2022-11-29T02:02:46.909Z,97232.59
2022-11-29T02:05:17.421Z,97215.56
2022-11-29T02:07:49.951Z,97232.56
2022-11-29T02:10:21.665Z,97227.16
2022-11-29T02:13:15.715Z,97240.63
2022-11-29T02:15:58.231Z,97236.34
2022-11-29T02:18:34.761Z,97232.81
2022-11-29T02:21:27.660Z,97229.56
2022-11-29T02:24:30.090Z,97233.53
2022-11-29T02:27:36.123Z,97228.47
2022-11-29T02:30:48.654Z,97227.59
2022-11-29T02:33:52.068Z,97223.97
2022-11-29T02:37:00.490Z,97220.53
2022-11-29T02:39:54.246Z,97218.84
2022-11-29T02:42:27.396Z,97228.22
2022-11-29T02:45:08.930Z,97223.88
2022-11-29T02:47:49.760Z,97222.47
2022-11-29T02:50:35.734Z,97218.13
2022-11-29T02:53:34.252Z,97213.53
2022-11-29T02:56:45.783Z,97208.34
2022-11-29T02:59:45.783Z,97220.84
2022-11-29T03:02:36.028Z,97231.88
2022-11-29T03:05:24.662Z,97227.44
2022-11-29T03:08:13.982Z,97222.81
2022-11-29T03:11:12.909Z,97223.81
2022-11-29T03:14:14.928Z,97224.03
2022-11-29T03:17:26.090Z,97190.31
2022-11-29T03:20:28.052Z,97221.47
2022-11-29T03:23:00.902Z,97221.50
2022-11-29T03:25:44.954Z,97225.59
2022-11-29T03:28:20.043Z,97209.28
2022-11-29T03:31:07.655Z,97221.34
2022-11-29T03:34:09.059Z,97225.44
2022-11-29T03:36:55.778Z,97230.59
2022-11-29T03:39:33.407Z,97215.84
2022-11-29T03:42:08.840Z,97229.91
2022-11-29T03:45:08.980Z,97229.72
2022-11-29T03:47:49.217Z,97228.16
2022-11-29T03:50:35.735Z,97232.72
2022-11-29T03:53:28.829Z,97233.53
2022-11-29T03:56:21.620Z,97250.47
2022-11-29T03:59:23.746Z,97242.91
2022-11-29T04:02:19.227Z,97251.19
2022-11-29T04:04:59.365Z,97253.72
2022-11-29T04:08:01.088Z,97245.88
2022-11-29T04:11:01.661Z,97244.13
2022-11-29T04:13:57.776Z,97253.28
2022-11-29T04:16:52.390Z,97256.75
2022-11-29T04:19:42.708Z,97263.09
2022-11-29T04:22:30.860Z,97259.38
2022-11-29T04:25:25.928Z,97257.38
2022-11-29T04:28:26.659Z,97259.94
2022-11-29T04:31:08.392Z,97257.41
2022-11-29T04:33:57.534Z,97258.09
2022-11-29T04:36:33.654Z,97254.41
2022-11-29T04:39:05.224Z,97267.19
2022-11-29T04:41:40.780Z,97259.53
2022-11-29T04:44:27.089Z,97251.78
2022-11-29T04:47:24.601Z,97250.94
2022-11-29T04:50:33.416Z,97252.69
2022-11-29T04:53:25.715Z,97256.56
2022-11-29T04:56:09.355Z,97251.44
2022-11-29T04:58:49.400Z,97253.84
2022-11-29T05:01:55.820Z,97260.41
2022-11-29T05:04:54.749Z,97262.34
2022-11-29T05:07:57.126Z,97247.00
2022-11-29T05:11:01.156Z,97248.25
2022-11-29T05:13:37.905Z,97259.03
2022-11-29T05:16:23.744Z,97260.69
2022-11-29T05:19:25.214Z,97258.38
2022-11-29T05:22:32.066Z,97273.59
2022-11-29T05:25:34.551Z,97266.69
2022-11-29T05:28:12.291Z,97255.56
2022-11-29T05:31:03.118Z,97270.97
2022-11-29T05:33:57.844Z,97280.13
2022-11-29T05:36:45.580Z,97286.09
2022-11-29T05:39:30.579Z,97288.00
2022-11-29T05:42:03.644Z,97293.97
2022-11-29T05:44:44.596Z,97275.13
2022-11-29T05:47:26.887Z,97266.28
2022-11-29T05:50:20.210Z,97284.97
2022-11-29T05:53:18.576Z,97291.00
2022-11-29T05:56:03.794Z,97292.03
2022-11-29T05:59:06.998Z,97286.72
2022-11-29T06:01:38.473Z,97290.91
2022-11-29T06:04:32.232Z,97290.06
2022-11-29T06:07:22.392Z,97292.81
2022-11-29T06:10:11.425Z,97291.00
2022-11-29T06:12:44.489Z,97279.09
2022-11-29T06:15:25.333Z,97296.03
2022-11-29T06:18:38.860Z,97301.13
2022-11-29T06:21:34.645Z,97295.91
2022-11-29T06:24:30.121Z,97293.47
2022-11-29T06:27:19.899Z,97278.00
2022-11-29T06:30:10.859Z,97278.47
2022-11-29T06:33:00.321Z,97281.66
2022-11-29T06:35:49.894Z,97264.78
2022-11-29T06:38:28.719Z,97282.44
2022-11-29T06:41:02.329Z,97243.44
2022-11-29T06:43:34.734Z,97284.69
2022-11-29T06:46:28.663Z,97283.72
2022-11-29T06:49:13.920Z,97276.16
2022-11-29T06:52:07.339Z,97271.59
2022-11-29T06:54:54.849Z,97264.00
2022-11-29T06:57:48.624Z,97265.28
2022-11-29T07:00:39.046Z,97266.84
2022-11-29T07:03:27.804Z,97270.50
2022-11-29T07:06:21.327Z,97262.88
2022-11-29T07:08:59.741Z,97265.22
2022-11-29T07:11:28.754Z,97262.13
2022-11-29T07:13:59.317Z,97285.28
2022-11-29T07:17:02.894Z,97274.94
2022-11-29T07:20:04.750Z,97283.47
2022-11-29T07:23:02.086Z,97282.47
2022-11-29T07:25:38.181Z,97286.59
2022-11-29T07:31:33.472Z,97269.88
2022-11-29T07:34:44.403Z,97281.66
2022-11-29T07:37:58.106Z,97280.59
2022-11-29T07:40:42.717Z,97267.25
2022-11-29T07:43:26.256Z,97231.69
2022-11-29T07:46:12.934Z,97262.41
2022-11-29T07:48:40.297Z,97289.47
2022-11-29T07:51:12.937Z,97258.13
2022-11-29T07:53:48.360Z,97293.41
2022-11-29T07:56:21.436Z,97285.50
2022-11-29T07:59:16.954Z,97291.28
2022-11-29T08:01:47.805Z,97284.28
2022-11-29T08:04:19.976Z,97284.44
2022-11-29T08:10:39.824Z,97298.41
2022-11-29T08:13:09.800Z,97291.38
2022-11-29T08:18:44.925Z,97307.97
2022-11-29T08:21:20.550Z,97283.69
2022-11-29T08:23:50.202Z,97314.38
2022-11-29T08:26:31.912Z,97310.84
2022-11-29T08:29:06.356Z,97272.94
2022-11-29T08:31:37.687Z,97306.91
2022-11-29T08:34:14.832Z,97309.19
2022-11-29T08:36:55.393Z,97307.38
2022-11-29T08:39:31.682Z,97308.28
2022-11-29T08:42:02.980Z,97280.72
2022-11-29T08:44:31.715Z,97295.47
2022-11-29T08:47:23.788Z,97308.78
2022-11-29T08:50:03.395Z,97294.97
2022-11-29T08:53:25.013Z,97302.38
2022-11-29T08:56:41.636Z,97287.78
2022-11-29T08:59:01.693Z,97279.13
2022-11-29T09:01:42.945Z,97300.34
2022-11-29T09:07:14.237Z,97291.72
2022-11-29T09:09:53.890Z,97282.16
2022-11-29T09:12:31.913Z,97257.44
2022-11-29T09:14:59.503Z,97281.03
2022-11-29T09:17:30.259Z,97247.56
2022-11-29T09:20:00.211Z,97262.72
2022-11-29T09:22:31.250Z,97249.00
2022-11-29T09:25:00.703Z,97269.59
2022-11-29T09:27:39.129Z,97244.84
2022-11-29T09:30:09.599Z,97265.81
2022-11-29T09:32:45.956Z,97238.75
2022-11-29T09:35:19.319Z,97235.91
2022-11-29T09:37:49.167Z,97245.34
2022-11-29T09:40:25.241Z,97242.59
2022-11-29T09:43:21.050Z,97242.41
2022-11-29T09:45:57.869Z,97225.72
2022-11-29T09:48:29.862Z,97244.03
2022-11-29T09:54:27.903Z,97225.88
2022-11-29T09:56:59.374Z,97230.22
2022-11-29T09:59:48.902Z,97220.56
2022-11-29T10:02:38.471Z,97212.34
2022-11-29T10:05:23.958Z,97223.31
2022-11-29T10:08:23.711Z,97231.22
2022-11-29T10:11:28.436Z,97225.13
2022-11-29T10:14:28.990Z,97214.38
2022-11-29T10:17:22.425Z,97226.28
2022-11-29T10:19:58.703Z,97224.13
2022-11-29T10:22:54.162Z,97216.78
2022-11-29T10:25:52.256Z,97207.00
2022-11-29T10:28:27.122Z,97170.69
2022-11-29T10:31:19.913Z,97212.50
2022-11-29T10:33:54.160Z,97211.19
2022-11-29T10:36:32.538Z,97207.66
2022-11-29T10:39:23.525Z,97209.72
2022-11-29T10:41:58.566Z,97198.00
2022-11-29T10:44:36.462Z,97206.81
2022-11-29T10:49:58.954Z,97192.50
2022-11-29T10:52:32.365Z,97194.56
2022-11-29T10:55:05.171Z,97207.00
2022-11-29T10:57:45.322Z,97192.84
2022-11-29T11:00:26.085Z,97199.72
2022-11-29T11:07:36.973Z,97191.06
2022-11-29T11:10:28.960Z,97185.47
2022-11-29T11:16:31.630Z,97189.94
2022-11-29T11:23:26.973Z,97183.09
2022-11-29T11:26:17.516Z,97162.00
2022-11-29T11:32:26.698Z,97187.31
2022-11-29T11:35:08.633Z,97181.75
2022-11-29T11:37:36.676Z,97173.03
2022-11-29T11:40:29.802Z,97181.25
2022-11-29T11:43:04.506Z,97182.50
2022-11-29T11:52:50.671Z,97178.59
2022-11-29T11:55:58.917Z,97149.38
2022-11-29T11:58:33.314Z,97166.16
2022-11-29T12:01:32.557Z,97129.72
2022-11-29T12:04:39.763Z,97169.31
2022-11-29T12:07:45.188Z,97172.69
2022-11-29T12:10:47.643Z,97171.63
2022-11-29T12:21:24.847Z,97171.84
2022-11-29T12:24:32.715Z,97157.22
2022-11-29T12:27:07.073Z,97171.69
2022-11-29T12:33:33.814Z,97162.03
2022-11-29T12:36:07.558Z,97169.72
2022-11-29T12:39:11.374Z,97159.06
2022-11-29T12:45:33.844Z,97109.09
2022-11-29T12:48:36.670Z,97167.81
2022-11-29T12:51:28.547Z,97137.00
2022-11-29T12:54:11.094Z,97162.38
2022-11-29T12:57:12.224Z,97170.13
2022-11-29T13:00:04.096Z,97162.66
2022-11-29T13:02:52.156Z,97165.50
2022-11-29T13:06:16.645Z,97172.72
2022-11-29T13:09:14.250Z,97161.94
2022-11-29T13:12:15.175Z,97160.78
2022-11-29T13:15:01.322Z,97167.97
2022-11-29T13:17:51.207Z,97165.09
2022-11-29T13:21:00.853Z,97168.31
2022-11-29T13:24:06.923Z,97169.22
2022-11-29T13:26:35.302Z,97173.03
2022-11-29T13:29:11.311Z,97164.06
2022-11-29T13:31:45.447Z,97169.78
2022-11-29T13:34:47.936Z,97175.28
2022-11-29T13:37:32.061Z,97136.75
2022-11-29T13:40:47.669Z,97170.69
2022-11-29T13:44:00.287Z,97151.97
2022-11-29T13:46:55.098Z,97162.97
2022-11-29T13:49:57.377Z,97169.06
2022-11-29T13:52:52.975Z,97174.16
2022-11-29T13:55:31.491Z,97166.69
2022-11-29T13:58:17.531Z,97168.38
2022-11-29T14:00:51.270Z,97173.47
2022-11-29T14:03:27.347Z,97178.44
2022-11-29T14:06:13.591Z,97181.34
2022-11-29T14:09:21.769Z,97186.47
2022-11-29T14:11:59.696Z,97168.16
2022-11-29T14:14:58.467Z,97183.28
2022-11-29T14:17:49.902Z,97181.63
2022-11-29T14:20:28.191Z,97185.31
2022-11-29T14:23:06.054Z,97192.75
2022-11-29T14:26:06.039Z,97195.88
2022-11-29T14:28:48.915Z,97195.97
2022-11-29T14:31:57.858Z,97190.88
2022-11-29T14:34:38.276Z,97159.34
2022-11-29T14:37:38.634Z,97181.97
2022-11-29T14:40:23.023Z,97197.75
2022-11-29T14:42:53.690Z,97186.66
2022-11-29T14:45:28.024Z,97184.34
2022-11-29T14:47:59.482Z,97199.06
2022-11-29T14:50:47.785Z,97179.41
2022-11-29T14:53:34.847Z,97156.78
2022-11-29T14:56:32.048Z,97195.69
2022-11-29T14:59:39.673Z,97191.22
2022-11-29T15:02:45.586Z,97203.06
2022-11-29T15:05:28.133Z,97201.44
2022-11-29T15:08:36.174Z,97194.59
2022-11-29T15:11:36.383Z,97206.78
2022-11-29T15:17:34.678Z,97218.75
2022-11-29T15:24:26.847Z,97220.41
2022-11-29T15:27:21.830Z,97215.91
2022-11-29T15:29:55.938Z,97173.84
2022-11-29T15:32:40.894Z,97235.13
2022-11-29T15:35:19.006Z,97231.31
2022-11-29T15:37:51.313Z,97213.56
2022-11-29T15:40:30.710Z,97239.56
2022-11-29T15:43:23.707Z,97241.41
2022-11-29T15:46:00.874Z,97244.97
2022-11-29T15:48:39.734Z,97222.28
2022-11-29T15:51:31.681Z,97244.66
2022-11-29T15:54:36.919Z,97245.22
2022-11-29T15:57:43.282Z,97237.44
2022-11-29T16:03:08.077Z,97223.50
2022-11-29T16:05:42.324Z,97221.91
2022-11-29T16:08:21.296Z,97236.25
2022-11-29T16:10:57.902Z,97235.66
2022-11-29T16:13:45.782Z,97244.38
2022-11-29T16:16:24.613Z,97243.38
2022-11-29T16:18:56.656Z,97241.72
2022-11-29T16:21:30.966Z,97247.66
2022-11-29T16:24:16.881Z,97195.13
2022-11-29T16:26:53.099Z,97254.84
2022-11-29T16:29:28.920Z,97229.03
2022-11-29T16:31:57.471Z,97257.72
2022-11-29T16:34:44.918Z,97263.56
2022-11-29T16:37:31.792Z,97255.53
2022-11-29T16:40:20.899Z,97217.50
2022-11-29T16:43:07.164Z,97261.69
2022-11-29T16:46:27.616Z,97260.72
2022-11-29T16:49:00.093Z,97272.97
2022-11-29T16:51:49.108Z,97252.63
2022-11-29T16:54:32.471Z,97255.81
2022-11-29T16:57:05.001Z,97270.50
2022-11-29T16:59:40.646Z,97247.34
2022-11-29T17:02:12.694Z,97277.19
2022-11-29T17:04:40.761Z,97272.97
2022-11-29T17:07:14.557Z,97273.13
2022-11-29T17:09:43.594Z,97272.34
2022-11-29T17:12:44.845Z,97291.72
2022-11-29T17:15:22.942Z,97283.25
2022-11-29T17:17:52.167Z,97266.81
2022-11-29T17:20:30.464Z,97274.38
2022-11-29T17:23:01.870Z,97282.84
2022-11-29T17:25:29.473Z,97294.03
2022-11-29T17:28:01.319Z,97286.31
2022-11-29T17:30:34.396Z,97301.75
2022-11-29T17:33:02.620Z,97296.47
2022-11-29T17:35:35.597Z,97280.38
2022-11-29T17:38:03.031Z,97307.81
2022-11-29T17:40:39.367Z,97258.16
2022-11-29T17:43:12.421Z,97295.06
2022-11-29T17:45:44.952Z,97302.28
2022-11-29T17:48:14.243Z,97283.84
2022-11-29T17:50:42.962Z,97289.00
2022-11-29T17:59:39.303Z,97298.25
2022-11-29T18:02:09.112Z,97301.72
2022-11-29T18:04:39.430Z,97299.34
2022-11-29T18:07:08.891Z,97289.16
2022-11-29T18:09:40.658Z,97276.41
2022-11-29T18:12:15.415Z,97275.13
2022-11-29T18:14:43.345Z,97277.84
2022-11-29T18:17:13.621Z,97273.94
2022-11-29T18:19:48.650Z,97285.22
2022-11-29T18:22:15.857Z,97296.59
2022-11-29T18:24:46.150Z,97294.56
2022-11-29T18:27:21.922Z,97300.28
2022-11-29T18:30:01.934Z,97250.75
2022-11-29T18:35:52.880Z,97289.44
2022-11-29T18:41:21.587Z,97305.38
2022-11-29T18:46:48.696Z,97294.66
2022-11-29T18:52:40.592Z,97314.72
2022-11-29T18:55:11.089Z,97315.78
2022-11-29T18:57:42.796Z,97318.50
2022-11-29T19:00:18.941Z,97323.28
2022-11-29T19:02:50.173Z,97312.69
2022-11-29T19:05:18.988Z,97306.53
2022-11-29T19:07:48.616Z,97317.41
2022-11-29T19:10:16.425Z,97313.59
2022-11-29T19:12:45.546Z,97316.59
2022-11-29T19:15:15.294Z,97301.38
2022-11-29T19:17:45.352Z,97314.78
2022-11-29T19:20:20.817Z,97298.84
2022-11-29T19:22:51.646Z,97295.38
2022-11-29T19:25:28.445Z,97298.44
2022-11-29T19:27:57.937Z,97302.75
2022-11-29T19:30:25.150Z,97303.03
2022-11-29T19:32:57.535Z,97314.88
2022-11-29T19:35:27.026Z,97311.66
2022-11-29T19:37:55.711Z,97305.13
2022-11-29T19:40:25.582Z,97317.88
2022-11-29T19:43:02.903Z,97327.38
2022-11-29T19:45:43.070Z,97304.13
2022-11-29T19:48:21.789Z,97302.91
2022-11-29T19:59:17.484Z,97301.81
2022-11-29T20:16:23.128Z,97309.97
2022-11-29T20:22:31.957Z,97311.44
2022-11-29T20:27:48.361Z,97286.94
2022-11-29T20:30:24.156Z,97303.94
2022-11-29T20:32:56.687Z,97301.75
2022-11-29T20:59:03.608Z,97309.22
2022-11-29T21:01:43.733Z,97309.00
2022-11-29T21:04:20.171Z,97304.91
2022-11-29T21:10:01.152Z,97284.72
2022-11-29T21:13:08.163Z,97301.06
2022-11-29T21:15:46.305Z,97301.75
2022-11-29T21:24:57.596Z,97316.00
2022-11-29T21:43:08.102Z,97304.75
2022-11-29T21:45:40.032Z,97311.19
2022-11-29T21:48:28.308Z,97312.44
2022-11-29T21:50:56.941Z,97286.00
2022-11-29T21:53:40.388Z,97316.28
2022-11-29T21:56:19.522Z,97311.50
2022-11-29T22:01:35.621Z,97305.81
2022-11-29T22:04:25.361Z,97302.22
2022-11-29T22:06:58.534Z,97289.06
2022-11-29T22:09:31.316Z,97304.91
2022-11-29T22:12:19.532Z,97304.59
2022-11-29T22:14:51.502Z,97304.00
2022-11-29T22:17:19.370Z,97303.16
2022-11-29T22:19:49.960Z,97296.38
2022-11-29T22:22:19.187Z,97303.50
2022-11-29T22:24:47.565Z,97300.13
2022-11-29T22:27:19.534Z,97307.84
2022-11-29T22:29:59.343Z,97300.09
2022-11-29T22:32:31.995Z,97285.63
2022-11-29T22:35:01.031Z,97298.91
2022-11-29T22:37:32.278Z,97301.00
2022-11-29T22:40:07.588Z,97289.56
2022-11-29T22:42:41.556Z,97272.69
2022-11-29T22:45:17.782Z,97290.34
2022-11-29T22:53:26.795Z,97286.75
2022-11-29T22:56:07.141Z,97276.84
2022-11-29T22:58:40.949Z,97264.97
2022-11-29T23:01:42.235Z,97259.88
2022-11-29T23:04:13.225Z,97275.72
2022-11-29T23:06:47.570Z,97283.34
2022-11-29T23:09:20.552Z,97274.97
2022-11-29T23:11:59.107Z,97264.84
2022-11-29T23:14:28.059Z,97245.19
2022-11-29T23:16:55.664Z,97241.00
2022-11-29T23:19:23.097Z,97272.16
2022-11-29T23:21:53.411Z,97273.03
2022-11-29T23:24:23.077Z,97273.78
2022-11-29T23:26:52.089Z,97268.69
2022-11-29T23:29:21.277Z,97240.91
2022-11-29T23:31:48.543Z,97264.97
2022-11-29T23:34:16.183Z,97275.25
2022-11-29T23:36:51.179Z,97257.25
2022-11-29T23:39:22.943Z,97273.31
2022-11-29T23:44:38.501Z,97232.22
2022-11-29T23:47:08.975Z,97268.56
2022-11-29T23:49:43.086Z,97228.78
2022-11-29T23:52:15.828Z,97254.00
2022-11-29T23:54:43.044Z,97258.56
2022-11-29T23:57:13.361Z,97272.81
2022-11-29T23:59:44.517Z,97265.53
